Time;durP1;ratioP1;P1;durP2;ratioP2;P2;SDS_P1;SDS_P2;PMS_P1;PMS_P2;Temp;Humidity;BMP_temperature;BMP_pressure;BME280_temperature;BME280_humidity;BME280_pressure;Samples;Min_cycle;Max_cycle;Signal;HPM_P1;HPM_P2
2021/04/20 00:00:58;;;;;;;11.27;6.83;;;;;;;;;;5013957;28;20232;-78
2021/04/20 00:03:27;;;;;;;9.77;6.80;;;;;;;;;;5003704;28;20227;-79
2021/04/20 00:05:55;;;;;;;8.13;6.53;;;;;;;;;;5014958;28;20220;-78
2021/04/20 00:08:23;;;;;;;9.10;6.03;;;;;;;;;;5020306;28;20227;-78
2021/04/20 00:10:50;;;;;;;7.63;6.20;;;;;;;;;;5016171;28;20240;-78
2021/04/20 00:13:18;;;;;;;7.97;6.17;;;;;;;;;;5037903;28;20233;-83
2021/04/20 00:15:46;;;;;;;7.50;6.43;;;;;;;;;;5035753;28;20219;-80
2021/04/20 00:18:13;;;;;;;6.87;6.10;;;;;;;;;;5042615;28;20244;-80
2021/04/20 00:20:42;;;;;;;9.97;6.80;;;;;;;;;;5038221;28;20230;-80
2021/04/20 00:23:09;;;;;;;8.53;7.37;;;;;;;;;;5042345;28;20251;-82
2021/04/20 00:25:37;;;;;;;8.33;7.00;;;;;;;;;;5030788;28;20219;-79
2021/04/20 00:28:07;;;;;;;9.73;6.87;;;;;;;;;;5021158;28;20220;-80
2021/04/20 00:30:35;;;;;;;9.67;8.07;;;;;;;;;;5017603;28;20236;-80
2021/04/20 00:33:02;;;;;;;8.93;6.73;;;;;;;;;;5016832;28;20235;-79
2021/04/20 00:35:30;;;;;;;9.07;7.43;;;;;;;;;;4999541;28;20242;-79
2021/04/20 00:37:58;;;;;;;9.70;7.07;;;;;;;;;;5014209;28;20228;-80
2021/04/20 00:40:26;;;;;;;7.93;6.70;;;;;;;;;;5036504;28;20229;-78
2021/04/20 00:42:55;;;;;;;8.67;6.60;;;;;;;;;;5012499;28;20608;-78
2021/04/20 00:45:24;;;;;;;8.33;7.17;;;;;;;;;;5018924;28;20224;-79
2021/04/20 00:47:52;;;;;;;9.27;7.23;;;;;;;;;;5002749;28;20216;-79
2021/04/20 00:50:22;;;;;;;8.40;6.73;;;;;;;;;;5011709;28;20226;-79
2021/04/20 00:52:50;;;;;;;9.03;7.40;;;;;;;;;;5032881;28;20242;-79
2021/04/20 00:55:18;;;;;;;8.93;7.30;;;;;;;;;;5021807;28;20250;-78
2021/04/20 00:57:46;;;;;;;9.20;7.80;;;;;;;;;;5018487;28;20228;-78
2021/04/20 01:00:15;;;;;;;8.03;6.80;;;;;;;;;;5016948;28;20601;-81
2021/04/20 01:02:43;;;;;;;10.33;8.27;;;;;;;;;;5022507;28;20776;-79
2021/04/20 01:05:16;;;;;;;9.00;7.40;;;;;;;;;;5004332;28;20576;-80
2021/04/20 01:07:44;;;;;;;8.60;7.13;;;;;;;;;;5022535;28;20611;-80
2021/04/20 01:10:12;;;;;;;10.13;7.57;;;;;;;;;;5024625;28;20705;-79
2021/04/20 01:12:42;;;;;;;8.70;7.43;;;;;;;;;;5022589;28;20708;-78
2021/04/20 01:15:12;;;;;;;9.67;8.20;;;;;;;;;;5014204;28;20748;-78
2021/04/20 01:17:40;;;;;;;8.83;7.77;;;;;;;;;;5022282;28;21275;-79
2021/04/20 01:20:10;;;;;;;10.30;7.57;;;;;;;;;;5019179;28;20767;-79
2021/04/20 01:22:40;;;;;;;9.93;7.77;;;;;;;;;;5021529;28;20228;-79
2021/04/20 01:25:12;;;;;;;8.77;7.27;;;;;;;;;;5024845;28;20231;-79
2021/04/20 01:27:39;;;;;;;9.50;8.47;;;;;;;;;;5009703;28;20228;-78
2021/04/20 01:30:09;;;;;;;9.63;7.10;;;;;;;;;;5019719;28;20223;-78
2021/04/20 01:32:37;;;;;;;10.70;8.07;;;;;;;;;;5019588;28;20227;-78
2021/04/20 01:35:07;;;;;;;9.43;7.13;;;;;;;;;;5024166;28;20251;-79
2021/04/20 01:37:35;;;;;;;9.33;6.80;;;;;;;;;;5020726;28;20228;-80
2021/04/20 01:40:04;;;;;;;8.00;7.00;;;;;;;;;;5007555;28;20255;-79
2021/04/20 01:42:34;;;;;;;8.47;6.87;;;;;;;;;;5020068;28;20231;-81
2021/04/20 01:45:05;;;;;;;9.43;7.70;;;;;;;;;;5029782;28;20394;-78
2021/04/20 01:47:32;;;;;;;8.20;7.23;;;;;;;;;;5019120;28;20228;-78
2021/04/20 01:50:01;;;;;;;8.37;7.10;;;;;;;;;;5018616;28;20236;-82
2021/04/20 01:52:28;;;;;;;9.03;7.07;;;;;;;;;;5016913;28;20223;-79
2021/04/20 01:54:56;;;;;;;9.73;7.30;;;;;;;;;;5026078;28;20358;-80
2021/04/20 01:57:24;;;;;;;8.43;7.20;;;;;;;;;;5034739;28;20439;-78
2021/04/20 01:59:52;;;;;;;9.37;7.30;;;;;;;;;;5038984;28;20236;-80
2021/04/20 02:02:20;;;;;;;9.97;7.93;;;;;;;;;;5016516;28;20239;-78
2021/04/20 02:04:48;;;;;;;9.63;7.33;;;;;;;;;;5017322;28;20224;-79
2021/04/20 02:07:15;;;;;;;8.83;7.93;;;;;;;;;;5004608;28;20624;-80
2021/04/20 02:09:43;;;;;;;10.07;7.67;;;;;;;;;;4998922;28;20221;-79
2021/04/20 02:12:11;;;;;;;9.83;8.17;;;;;;;;;;5003871;28;20599;-79
2021/04/20 02:14:38;;;;;;;9.37;7.97;;;;;;;;;;5006478;28;20227;-78
2021/04/20 02:17:07;;;;;;;10.17;7.63;;;;;;;;;;5021685;28;20604;-81
2021/04/20 02:19:35;;;;;;;12.07;8.13;;;;;;;;;;5019403;28;20303;-79
2021/04/20 02:22:03;;;;;;;9.00;7.93;;;;;;;;;;5017987;28;20794;-79
2021/04/20 02:24:31;;;;;;;10.77;8.57;;;;;;;;;;5017017;28;20220;-79
2021/04/20 02:26:59;;;;;;;9.10;7.73;;;;;;;;;;5019584;28;20240;-79
2021/04/20 02:29:26;;;;;;;8.50;7.60;;;;;;;;;;5003745;28;20243;-79
2021/04/20 02:31:54;;;;;;;8.93;7.37;;;;;;;;;;5000588;28;20224;-78
2021/04/20 02:34:23;;;;;;;9.30;7.97;;;;;;;;;;5006964;28;20227;-78
2021/04/20 02:36:52;;;;;;;8.33;7.27;;;;;;;;;;5021687;28;20221;-78
2021/04/20 02:39:20;;;;;;;9.13;7.83;;;;;;;;;;5022969;28;20609;-79
2021/04/20 02:41:49;;;;;;;11.37;8.03;;;;;;;;;;5016913;28;20239;-78
2021/04/20 02:44:16;;;;;;;9.03;7.93;;;;;;;;;;5003213;28;20602;-81
2021/04/20 02:46:45;;;;;;;8.50;7.53;;;;;;;;;;5016709;28;20229;-79
2021/04/20 02:49:13;;;;;;;9.37;7.23;;;;;;;;;;5033293;28;20227;-78
2021/04/20 02:51:41;;;;;;;9.27;7.00;;;;;;;;;;5018842;28;20611;-79
2021/04/20 02:54:09;;;;;;;9.60;7.30;;;;;;;;;;5021553;28;20227;-78
2021/04/20 02:56:37;;;;;;;9.00;7.50;;;;;;;;;;5025287;28;20235;-78
2021/04/20 02:59:06;;;;;;;8.90;7.63;;;;;;;;;;5015564;28;20626;-78
2021/04/20 03:01:37;;;;;;;8.20;7.03;;;;;;;;;;5018743;28;20665;-80
2021/04/20 03:04:05;;;;;;;7.97;7.17;;;;;;;;;;5001057;28;20235;-79
2021/04/20 03:06:33;;;;;;;8.97;8.03;;;;;;;;;;5019686;28;20220;-78
2021/04/20 03:09:03;;;;;;;9.43;7.70;;;;;;;;;;5004362;28;20240;-77
2021/04/20 03:11:34;;;;;;;9.83;7.60;;;;;;;;;;4994058;28;20224;-78
2021/04/20 03:14:05;;;;;;;10.43;7.33;;;;;;;;;;5019312;28;20220;-79
2021/04/20 03:16:33;;;;;;;9.30;7.30;;;;;;;;;;4995929;28;20220;-78
2021/04/20 03:19:04;;;;;;;8.27;7.27;;;;;;;;;;5002647;28;20221;-77
2021/04/20 03:21:32;;;;;;;8.53;7.63;;;;;;;;;;5017305;28;20228;-80
2021/04/20 03:24:02;;;;;;;8.70;7.33;;;;;;;;;;5019752;28;20227;-79
2021/04/20 03:26:35;;;;;;;8.77;7.40;;;;;;;;;;5006740;28;20235;-79
2021/04/20 03:29:06;;;;;;;9.53;7.73;;;;;;;;;;5016033;28;20223;-78
2021/04/20 03:31:37;;;;;;;9.83;7.40;;;;;;;;;;5039257;28;20228;-78
2021/04/20 03:34:13;;;;;;;8.13;7.33;;;;;;;;;;5035541;28;20710;-80
2021/04/20 03:36:43;;;;;;;8.67;7.43;;;;;;;;;;5011316;28;20232;-79
2021/04/20 03:39:14;;;;;;;8.43;6.63;;;;;;;;;;5036306;28;20236;-79
2021/04/20 03:41:48;;;;;;;9.23;7.47;;;;;;;;;;4993200;28;20227;-80
2021/04/20 03:44:19;;;;;;;8.07;7.23;;;;;;;;;;5002725;28;20228;-78
2021/04/20 03:46:50;;;;;;;9.43;7.70;;;;;;;;;;5005497;28;20716;-80
2021/04/20 03:49:22;;;;;;;10.60;7.80;;;;;;;;;;5000987;28;20235;-79
2021/04/20 03:51:52;;;;;;;9.00;7.73;;;;;;;;;;5029368;28;20227;-78
2021/04/20 03:54:22;;;;;;;8.93;7.57;;;;;;;;;;4994381;28;20235;-79
2021/04/20 03:56:51;;;;;;;9.07;7.60;;;;;;;;;;5001296;28;20225;-79
2021/04/20 03:59:20;;;;;;;9.17;7.60;;;;;;;;;;5015880;28;20240;-79
2021/04/20 04:01:50;;;;;;;8.77;7.60;;;;;;;;;;4996663;28;20602;-79
2021/04/20 04:04:19;;;;;;;8.40;7.33;;;;;;;;;;5009845;28;20232;-79
2021/04/20 04:06:47;;;;;;;9.80;7.67;;;;;;;;;;5019116;28;20235;-79
2021/04/20 04:09:17;;;;;;;9.20;7.80;;;;;;;;;;5012744;28;20227;-79
2021/04/20 04:11:48;;;;;;;9.43;7.73;;;;;;;;;;5020645;28;20223;-81
2021/04/20 04:14:17;;;;;;;10.23;7.90;;;;;;;;;;4995762;28;20224;-78
2021/04/20 04:16:46;;;;;;;8.93;7.53;;;;;;;;;;5016545;28;20235;-78
2021/04/20 04:19:15;;;;;;;10.03;8.23;;;;;;;;;;5020654;28;20319;-79
2021/04/20 04:21:46;;;;;;;8.20;7.30;;;;;;;;;;5002086;28;20722;-79
2021/04/20 04:24:18;;;;;;;10.63;8.23;;;;;;;;;;5013346;28;20829;-80
2021/04/20 04:26:49;;;;;;;9.40;8.10;;;;;;;;;;5011348;28;20227;-79
2021/04/20 04:29:19;;;;;;;10.70;8.70;;;;;;;;;;5023764;28;20290;-78
2021/04/20 04:31:47;;;;;;;11.43;9.13;;;;;;;;;;5019090;28;20717;-81
2021/04/20 04:34:17;;;;;;;10.23;8.07;;;;;;;;;;5013639;28;20224;-80
2021/04/20 04:36:46;;;;;;;11.50;9.43;;;;;;;;;;5017231;28;20231;-80
2021/04/20 04:39:15;;;;;;;10.43;9.20;;;;;;;;;;5002260;28;20227;-78
2021/04/20 04:41:43;;;;;;;12.83;9.60;;;;;;;;;;5017019;28;20245;-78
2021/04/20 04:44:12;;;;;;;10.87;9.07;;;;;;;;;;5023140;28;20247;-78
2021/04/20 04:46:40;;;;;;;14.47;9.87;;;;;;;;;;5002744;28;20224;-78
2021/04/20 04:49:09;;;;;;;12.77;9.30;;;;;;;;;;5027285;28;20236;-78
2021/04/20 04:51:38;;;;;;;10.23;9.20;;;;;;;;;;5015684;28;20227;-79
2021/04/20 04:54:06;;;;;;;10.90;9.07;;;;;;;;;;5014621;28;20234;-79
2021/04/20 04:56:34;;;;;;;11.97;9.47;;;;;;;;;;5016452;28;20232;-79
2021/04/20 04:59:02;;;;;;;11.67;9.20;;;;;;;;;;5017312;28;20228;-79
2021/04/20 05:01:32;;;;;;;12.07;9.37;;;;;;;;;;5029541;28;20235;-79
2021/04/20 05:04:05;;;;;;;10.93;9.37;;;;;;;;;;5025517;28;20242;-80
2021/04/20 05:06:34;;;;;;;13.33;9.70;;;;;;;;;;5013244;28;20227;-79
2021/04/20 05:09:01;;;;;;;10.33;9.23;;;;;;;;;;5024416;28;20224;-78
2021/04/20 05:11:29;;;;;;;12.97;10.13;;;;;;;;;;5008000;28;20220;-82
2021/04/20 05:13:56;;;;;;;11.83;8.83;;;;;;;;;;5026081;28;20232;-79
2021/04/20 05:16:24;;;;;;;12.50;9.70;;;;;;;;;;5026117;28;20231;-81
2021/04/20 05:18:54;;;;;;;11.77;10.07;;;;;;;;;;5019714;28;20229;-78
2021/04/20 05:21:22;;;;;;;11.77;9.50;;;;;;;;;;5020170;28;20220;-78
2021/04/20 05:23:52;;;;;;;12.80;9.67;;;;;;;;;;5017283;28;20239;-78
2021/04/20 05:26:20;;;;;;;12.60;9.37;;;;;;;;;;5016620;28;20225;-77
2021/04/20 05:28:47;;;;;;;10.80;8.90;;;;;;;;;;5024662;28;20225;-78
2021/04/20 05:31:15;;;;;;;13.23;9.57;;;;;;;;;;5017310;28;20216;-79
2021/04/20 05:33:42;;;;;;;12.00;9.40;;;;;;;;;;5024331;28;20216;-79
2021/04/20 05:36:11;;;;;;;12.67;9.47;;;;;;;;;;5021592;28;20232;-81
2021/04/20 05:38:39;;;;;;;11.97;9.37;;;;;;;;;;5013165;28;20224;-78
2021/04/20 05:41:07;;;;;;;10.70;9.23;;;;;;;;;;5033121;28;20228;-80
2021/04/20 05:43:35;;;;;;;10.63;9.53;;;;;;;;;;5003409;28;20234;-80
2021/04/20 05:46:05;;;;;;;13.07;10.43;;;;;;;;;;5020899;28;20223;-80
2021/04/20 05:48:32;;;;;;;11.77;9.80;;;;;;;;;;4995870;28;20220;-79
2021/04/20 05:51:00;;;;;;;12.57;9.90;;;;;;;;;;5014551;28;20221;-77
2021/04/20 05:53:28;;;;;;;12.93;10.03;;;;;;;;;;4964574;28;20799;-79
2021/04/20 05:55:59;;;;;;;12.43;9.93;;;;;;;;;;5008794;28;20623;-81
2021/04/20 05:58:26;;;;;;;18.30;10.53;;;;;;;;;;5005413;28;20235;-81
2021/04/20 06:00:54;;;;;;;18.60;10.97;;;;;;;;;;4996898;28;20231;-79
2021/04/20 06:03:21;;;;;;;20.13;11.70;;;;;;;;;;5006149;28;20330;-77
2021/04/20 06:05:49;;;;;;;15.93;10.70;;;;;;;;;;4991395;28;20267;-80
2021/04/20 06:08:17;;;;;;;12.47;9.33;;;;;;;;;;5006952;28;20882;-79
2021/04/20 06:10:46;;;;;;;13.00;8.70;;;;;;;;;;4996255;28;20228;-78
2021/04/20 06:13:13;;;;;;;11.30;9.23;;;;;;;;;;5008592;28;20228;-79
2021/04/20 06:15:41;;;;;;;13.97;8.83;;;;;;;;;;5006494;28;20225;-80
2021/04/20 06:18:09;;;;;;;14.00;9.00;;;;;;;;;;4996331;28;20228;-80
2021/04/20 06:20:37;;;;;;;17.50;9.13;;;;;;;;;;5003765;28;20347;-79
2021/04/20 06:23:05;;;;;;;11.67;9.57;;;;;;;;;;5010988;28;20225;-80
2021/04/20 06:25:33;;;;;;;13.47;9.77;;;;;;;;;;5015075;28;20255;-78
2021/04/20 06:28:01;;;;;;;11.83;8.97;;;;;;;;;;5001581;28;20243;-76
2021/04/20 06:30:33;;;;;;;10.53;8.70;;;;;;;;;;4990140;28;20641;-77
2021/04/20 06:33:00;;;;;;;20.33;9.73;;;;;;;;;;4994301;28;20227;-81
2021/04/20 06:35:28;;;;;;;17.03;11.90;;;;;;;;;;4989665;28;20219;-79
2021/04/20 06:38:11;;;;;;;11.40;9.77;;;;;;;;;;4993249;28;20231;-78
2021/04/20 06:40:41;;;;;;;12.57;10.23;;;;;;;;;;4997065;28;20746;-81
2021/04/20 06:43:11;;;;;;;14.33;9.73;;;;;;;;;;5010347;28;20217;-78
2021/04/20 06:45:44;;;;;;;15.10;9.63;;;;;;;;;;5031758;28;20225;-78
2021/04/20 06:48:20;;;;;;;16.97;10.57;;;;;;;;;;4994314;28;20601;-78
2021/04/20 06:50:53;;;;;;;14.47;10.13;;;;;;;;;;5011331;28;20229;-78
2021/04/20 06:53:25;;;;;;;12.73;10.57;;;;;;;;;;5010734;28;20224;-80
2021/04/20 06:56:02;;;;;;;15.90;11.30;;;;;;;;;;5011078;28;20237;-79
2021/04/20 06:58:39;;;;;;;17.10;11.53;;;;;;;;;;4996806;28;20239;-78
2021/04/20 07:01:15;;;;;;;15.80;8.97;;;;;;;;;;5006807;28;20225;-78
2021/04/20 07:03:52;;;;;;;13.70;9.30;;;;;;;;;;5004009;28;20231;-78
2021/04/20 07:06:21;;;;;;;13.70;9.23;;;;;;;;;;5010018;28;20267;-77
2021/04/20 07:08:57;;;;;;;14.90;8.63;;;;;;;;;;5015479;28;20259;-78
2021/04/20 07:11:26;;;;;;;11.60;7.87;;;;;;;;;;5009583;28;20236;-78
2021/04/20 07:13:58;;;;;;;14.90;9.13;;;;;;;;;;5010383;28;20221;-79
2021/04/20 07:16:34;;;;;;;15.10;10.03;;;;;;;;;;5014824;28;20656;-80
2021/04/20 07:19:12;;;;;;;13.43;9.17;;;;;;;;;;4993733;28;20221;-78
2021/04/20 07:21:54;;;;;;;14.43;9.40;;;;;;;;;;5011588;28;20734;-77
2021/04/20 07:24:23;;;;;;;14.20;8.70;;;;;;;;;;5010475;28;20229;-79
2021/04/20 07:26:57;;;;;;;13.03;9.50;;;;;;;;;;4995842;28;20226;-76
2021/04/20 07:29:39;;;;;;;15.23;9.63;;;;;;;;;;5015574;28;20234;-78
2021/04/20 07:32:15;;;;;;;14.00;9.37;;;;;;;;;;5008418;28;20233;-77
2021/04/20 07:34:47;;;;;;;15.07;9.50;;;;;;;;;;5020016;28;20219;-78
2021/04/20 07:37:28;;;;;;;13.10;9.57;;;;;;;;;;4997277;28;20235;-77
2021/04/20 07:40:04;;;;;;;15.10;9.77;;;;;;;;;;5012670;28;20226;-77
2021/04/20 07:42:48;;;;;;;18.50;9.60;;;;;;;;;;5018606;28;20246;-78
2021/04/20 07:45:21;;;;;;;14.10;10.70;;;;;;;;;;5013011;28;20235;-78
2021/04/20 07:47:51;;;;;;;13.60;9.87;;;;;;;;;;5033060;28;20240;-78
2021/04/20 07:50:23;;;;;;;14.93;10.30;;;;;;;;;;4991402;28;20880;-77
2021/04/20 07:52:53;;;;;;;13.77;9.97;;;;;;;;;;4986019;28;20226;-77
2021/04/20 07:55:24;;;;;;;14.10;9.87;;;;;;;;;;4997943;28;20225;-80
2021/04/20 07:57:56;;;;;;;13.57;9.90;;;;;;;;;;5011145;28;20225;-77
2021/04/20 08:00:30;;;;;;;14.93;10.23;;;;;;;;;;5019463;28;20242;-77
2021/04/20 08:03:06;;;;;;;16.57;10.43;;;;;;;;;;5008197;28;20238;-78
2021/04/20 08:05:56;;;;;;;14.50;10.77;;;;;;;;;;4983589;28;20213;-78
2021/04/20 08:08:30;;;;;;;14.53;10.40;;;;;;;;;;4992572;28;20243;-80
2021/04/20 08:11:02;;;;;;;15.97;10.03;;;;;;;;;;4992943;28;20232;-78
2021/04/20 08:13:32;;;;;;;15.57;9.77;;;;;;;;;;4988550;28;20229;-76
2021/04/20 08:16:07;;;;;;;14.43;10.83;;;;;;;;;;4994661;28;20231;-78
2021/04/20 08:18:37;;;;;;;15.37;11.30;;;;;;;;;;4994199;28;20222;-78
2021/04/20 08:21:06;;;;;;;13.30;10.17;;;;;;;;;;5028340;28;20617;-77
2021/04/20 08:23:47;;;;;;;13.53;10.60;;;;;;;;;;5002046;28;20231;-77
2021/04/20 08:26:21;;;;;;;13.50;10.87;;;;;;;;;;4993973;28;20232;-78
2021/04/20 08:28:52;;;;;;;13.03;10.47;;;;;;;;;;4998973;28;20224;-79
2021/04/20 08:31:28;;;;;;;14.90;10.90;;;;;;;;;;5014262;28;20797;-78
2021/04/20 08:33:59;;;;;;;17.73;11.13;;;;;;;;;;5007310;28;20227;-78
2021/04/20 08:36:33;;;;;;;13.70;11.00;;;;;;;;;;5009944;28;20228;-78
2021/04/20 08:39:11;;;;;;;13.40;11.83;;;;;;;;;;5009664;28;20243;-76
2021/04/20 08:41:43;;;;;;;14.00;10.37;;;;;;;;;;5036385;28;20726;-79
2021/04/20 08:44:16;;;;;;;14.63;10.77;;;;;;;;;;5011233;28;20239;-79
2021/04/20 08:46:53;;;;;;;13.17;9.53;;;;;;;;;;5033507;28;20628;-80
2021/04/20 08:49:30;;;;;;;11.13;9.43;;;;;;;;;;5036096;28;20234;-78
2021/04/20 08:52:01;;;;;;;13.13;10.20;;;;;;;;;;5051865;28;20219;-77
2021/04/20 08:54:36;;;;;;;14.17;10.50;;;;;;;;;;5039515;28;20220;-76
2021/04/20 08:57:12;;;;;;;12.13;9.73;;;;;;;;;;5033771;28;20230;-77
2021/04/20 09:00:03;;;;;;;12.27;9.97;;;;;;;;;;5033606;28;20220;-81
2021/04/20 09:02:41;;;;;;;12.57;10.10;;;;;;;;;;5020562;28;20216;-77
2021/04/20 09:05:16;;;;;;;12.90;10.37;;;;;;;;;;5022759;28;20239;-77
2021/04/20 09:07:52;;;;;;;12.57;9.53;;;;;;;;;;5042849;28;20210;-78
2021/04/20 09:10:24;;;;;;;12.63;9.17;;;;;;;;;;5014303;28;20227;-78
2021/04/20 09:12:56;;;;;;;11.07;9.27;;;;;;;;;;5013864;28;20231;-77
2021/04/20 09:15:26;;;;;;;12.37;9.83;;;;;;;;;;5003727;28;20601;-77
2021/04/20 09:17:59;;;;;;;12.03;9.47;;;;;;;;;;4986973;28;20243;-76
2021/04/20 09:20:48;;;;;;;10.27;9.17;;;;;;;;;;5033387;28;20232;-77
2021/04/20 09:23:26;;;;;;;11.20;8.80;;;;;;;;;;5015088;28;20243;-78
2021/04/20 09:26:03;;;;;;;13.37;9.90;;;;;;;;;;5007199;28;20706;-78
2021/04/20 09:28:32;;;;;;;12.53;9.17;;;;;;;;;;5020749;28;20394;-78
2021/04/20 09:31:05;;;;;;;11.13;9.43;;;;;;;;;;5018135;28;20237;-78
2021/04/20 09:33:38;;;;;;;12.47;9.77;;;;;;;;;;5010223;28;20217;-78
2021/04/20 09:36:09;;;;;;;11.77;10.27;;;;;;;;;;5004840;28;20613;-77
2021/04/20 09:38:39;;;;;;;12.07;9.30;;;;;;;;;;5018616;28;20251;-77
2021/04/20 09:41:07;;;;;;;11.67;10.13;;;;;;;;;;5025269;28;20230;-77
2021/04/20 09:43:44;;;;;;;13.03;10.80;;;;;;;;;;5033689;28;20232;-78
2021/04/20 09:46:17;;;;;;;14.13;10.40;;;;;;;;;;5011566;28;20243;-77
2021/04/20 09:48:52;;;;;;;15.80;11.70;;;;;;;;;;5019200;28;20217;-79
2021/04/20 09:51:22;;;;;;;12.50;11.20;;;;;;;;;;5011351;28;20215;-76
2021/04/20 09:53:56;;;;;;;12.53;10.93;;;;;;;;;;5019235;28;20232;-79
2021/04/20 09:56:30;;;;;;;13.13;11.10;;;;;;;;;;5015467;28;20594;-77
2021/04/20 09:59:00;;;;;;;12.93;11.53;;;;;;;;;;5015532;28;20232;-76
2021/04/20 10:01:48;;;;;;;11.40;9.77;;;;;;;;;;5015840;28;20515;-79
2021/04/20 10:04:30;;;;;;;12.30;10.13;;;;;;;;;;5033638;28;20701;-77
2021/04/20 10:07:09;;;;;;;13.00;11.00;;;;;;;;;;5017550;28;20223;-79
2021/04/20 10:09:43;;;;;;;11.93;10.43;;;;;;;;;;5032067;28;20725;-78
2021/04/20 10:12:35;;;;;;;12.27;10.80;;;;;;;;;;5015535;28;20671;-76
2021/04/20 10:15:09;;;;;;;13.50;11.17;;;;;;;;;;5015209;28;20224;-75
2021/04/20 10:17:42;;;;;;;12.97;11.57;;;;;;;;;;4999193;28;20327;-75
2021/04/20 10:20:17;;;;;;;12.87;11.27;;;;;;;;;;4999109;28;21192;-76
2021/04/20 10:22:48;;;;;;;11.63;10.40;;;;;;;;;;5006603;28;20224;-75
2021/04/20 10:25:23;;;;;;;11.60;10.43;;;;;;;;;;5026001;28;20236;-77
2021/04/20 10:27:57;;;;;;;11.63;10.30;;;;;;;;;;5017004;28;20226;-75
2021/04/20 10:30:29;;;;;;;9.87;8.93;;;;;;;;;;4998765;28;20735;-77
2021/04/20 10:32:57;;;;;;;12.33;9.80;;;;;;;;;;4989168;28;20725;-75
2021/04/20 10:35:28;;;;;;;11.50;9.77;;;;;;;;;;5012839;28;20572;-76
2021/04/20 10:37:58;;;;;;;10.20;9.10;;;;;;;;;;5035098;28;20246;-77
2021/04/20 10:40:29;;;;;;;10.70;9.60;;;;;;;;;;5016933;28;20230;-76
2021/04/20 10:43:02;;;;;;;10.63;8.60;;;;;;;;;;5013921;28;20235;-77
2021/04/20 10:45:30;;;;;;;10.60;9.50;;;;;;;;;;5019307;28;20224;-76
2021/04/20 10:47:59;;;;;;;10.43;9.32;;;;;;;;;;5014984;28;20238;-76
2021/04/20 10:50:30;;;;;;;12.73;11.20;;;;;;;;;;5010218;28;20521;-78
2021/04/20 10:53:03;;;;;;;10.63;9.55;;;;;;;;;;4998857;28;20231;-75
2021/04/20 10:55:33;;;;;;;10.85;9.82;;;;;;;;;;5010797;28;20223;-76
2021/04/20 10:58:02;;;;;;;10.90;9.90;;;;;;;;;;5000615;28;20243;-77
2021/04/20 11:00:32;;;;;;;11.27;10.20;;;;;;;;;;5026517;28;20248;-76
2021/04/20 11:03:00;;;;;;;11.52;9.57;;;;;;;;;;5018020;28;20725;-76
2021/04/20 11:05:29;;;;;;;10.80;9.70;;;;;;;;;;5012976;28;20318;-76
2021/04/20 11:07:58;;;;;;;10.35;9.43;;;;;;;;;;5012847;28;20231;-76
2021/04/20 11:10:35;;;;;;;10.23;9.23;;;;;;;;;;5016781;28;20231;-76
2021/04/20 11:13:04;;;;;;;10.45;9.55;;;;;;;;;;5011926;28;20216;-77
2021/04/20 11:15:33;;;;;;;10.43;9.43;;;;;;;;;;5011037;28;20232;-77
2021/04/20 11:18:04;;;;;;;9.48;8.57;;;;;;;;;;5013609;28;20224;-76
2021/04/20 11:20:35;;;;;;;10.00;9.07;;;;;;;;;;5011343;28;20228;-77
2021/04/20 11:23:16;;;;;;;9.65;8.75;;;;;;;;;;5014028;28;20610;-76
2021/04/20 11:25:46;;;;;;;9.65;8.75;;;;;;;;;;5016330;28;20701;-78
2021/04/20 11:28:18;;;;;;;11.10;10.13;;;;;;;;;;4996196;28;20227;-77
2021/04/20 11:30:53;;;;;;;9.63;8.68;;;;;;;;;;5001666;28;20234;-77
2021/04/20 11:33:26;;;;;;;10.82;9.82;;;;;;;;;;5007026;28;20224;-76
2021/04/20 11:35:58;;;;;;;10.13;9.10;;;;;;;;;;4999111;28;20230;-76
2021/04/20 11:38:26;;;;;;;10.05;9.15;;;;;;;;;;5011257;28;20716;-76
2021/04/20 11:41:01;;;;;;;9.75;8.85;;;;;;;;;;4993555;28;20227;-77
2021/04/20 11:43:29;;;;;;;8.95;8.07;;;;;;;;;;5021601;28;20232;-76
2021/04/20 11:46:01;;;;;;;8.15;7.35;;;;;;;;;;5012686;28;20240;-75
2021/04/20 11:48:31;;;;;;;8.52;7.65;;;;;;;;;;5014865;28;20231;-76
2021/04/20 11:51:02;;;;;;;8.50;7.70;;;;;;;;;;5014808;28;20605;-76
2021/04/20 11:53:38;;;;;;;9.15;8.25;;;;;;;;;;5011062;28;20224;-76
2021/04/20 11:56:06;;;;;;;10.70;8.55;;;;;;;;;;5013462;28;20230;-76
2021/04/20 11:58:36;;;;;;;8.48;7.68;;;;;;;;;;5005882;28;20235;-77
2021/04/20 12:01:12;;;;;;;8.55;7.75;;;;;;;;;;5011445;28;20225;-75
2021/04/20 12:03:50;;;;;;;7.75;7.05;;;;;;;;;;5014142;28;20622;-76
2021/04/20 12:06:19;;;;;;;7.97;7.18;;;;;;;;;;5011021;28;20228;-76
2021/04/20 12:08:52;;;;;;;7.38;6.78;;;;;;;;;;4996506;28;20236;-78
2021/04/20 12:11:21;;;;;;;8.05;7.35;;;;;;;;;;4989631;28;20227;-76
2021/04/20 12:13:50;;;;;;;7.95;7.25;;;;;;;;;;5009422;28;20230;-76
2021/04/20 12:16:18;;;;;;;7.97;7.28;;;;;;;;;;5004111;28;21469;-76
2021/04/20 12:18:47;;;;;;;10.30;9.15;;;;;;;;;;5016831;28;20581;-76
2021/04/20 12:21:21;;;;;;;10.25;9.30;;;;;;;;;;4998111;28;20590;-76
2021/04/20 12:23:51;;;;;;;9.35;8.45;;;;;;;;;;5011363;28;20224;-76
2021/04/20 12:26:19;;;;;;;9.30;8.50;;;;;;;;;;5030922;28;20228;-76
2021/04/20 12:28:50;;;;;;;9.10;8.27;;;;;;;;;;5012643;28;20228;-76
2021/04/20 12:31:18;;;;;;;9.25;8.35;;;;;;;;;;5014915;28;20228;-76
2021/04/20 12:33:47;;;;;;;9.15;8.35;;;;;;;;;;5002262;28;20721;-76
2021/04/20 12:36:27;;;;;;;8.82;7.45;;;;;;;;;;4987274;28;21932;-78
2021/04/20 12:38:58;;;;;;;9.05;8.25;;;;;;;;;;4988808;28;20726;-76
2021/04/20 12:41:28;;;;;;;8.00;7.10;;;;;;;;;;4987063;28;20593;-76
2021/04/20 12:44:09;;;;;;;8.27;7.47;;;;;;;;;;5012949;28;20797;-76
2021/04/20 12:46:37;;;;;;;9.65;8.75;;;;;;;;;;5034920;28;20237;-76
2021/04/20 12:49:06;;;;;;;8.27;7.47;;;;;;;;;;5010365;28;20612;-76
2021/04/20 12:51:39;;;;;;;9.23;8.32;;;;;;;;;;5008318;28;20243;-76
2021/04/20 12:54:09;;;;;;;9.95;8.15;;;;;;;;;;5009517;28;20232;-76
2021/04/20 12:56:39;;;;;;;8.75;7.95;;;;;;;;;;4997305;28;20216;-76
2021/04/20 12:59:09;;;;;;;8.82;8.00;;;;;;;;;;5011671;28;20232;-76
2021/04/20 13:01:37;;;;;;;8.15;7.35;;;;;;;;;;5011565;28;20224;-76
2021/04/20 13:04:06;;;;;;;7.72;7.03;;;;;;;;;;4995634;28;20231;-76
2021/04/20 13:06:35;;;;;;;8.30;7.60;;;;;;;;;;5012640;28;20235;-76
2021/04/20 13:09:03;;;;;;;7.65;6.90;;;;;;;;;;4995171;28;20706;-76
2021/04/20 13:11:34;;;;;;;7.53;6.93;;;;;;;;;;4994680;28;20220;-75
2021/04/20 13:14:05;;;;;;;7.57;6.88;;;;;;;;;;5011080;28;20233;-77
2021/04/20 13:16:33;;;;;;;7.85;7.05;;;;;;;;;;4999007;28;20224;-77
2021/04/20 13:19:03;;;;;;;7.40;6.70;;;;;;;;;;4997297;28;20228;-77
2021/04/20 13:21:32;;;;;;;7.72;6.93;;;;;;;;;;5014387;28;20229;-75
2021/04/20 13:24:02;;;;;;;8.00;7.30;;;;;;;;;;4988422;28;20235;-76
2021/04/20 13:26:30;;;;;;;8.02;7.32;;;;;;;;;;4989558;28;20553;-76
2021/04/20 13:29:04;;;;;;;7.43;6.72;;;;;;;;;;5015694;28;20239;-76
2021/04/20 13:31:35;;;;;;;7.72;7.13;;;;;;;;;;5003880;28;21425;-76
2021/04/20 13:34:04;;;;;;;7.40;6.80;;;;;;;;;;5012153;28;20845;-76
2021/04/20 13:36:35;;;;;;;7.07;6.53;;;;;;;;;;5018612;28;20789;-76
2021/04/20 13:39:06;;;;;;;7.43;6.72;;;;;;;;;;5014192;28;20277;-76
2021/04/20 13:41:36;;;;;;;7.53;6.63;;;;;;;;;;4998791;28;20593;-76
2021/04/20 13:44:06;;;;;;;6.63;6.03;;;;;;;;;;5018554;28;20235;-76
2021/04/20 13:46:35;;;;;;;7.15;6.60;;;;;;;;;;5029200;28;20232;-75
2021/04/20 13:49:04;;;;;;;7.90;6.35;;;;;;;;;;5033200;28;20228;-76
2021/04/20 13:51:31;;;;;;;7.40;6.70;;;;;;;;;;5025339;28;20235;-76
2021/04/20 13:54:01;;;;;;;7.22;6.43;;;;;;;;;;5020337;28;20254;-77
2021/04/20 13:56:31;;;;;;;7.68;6.90;;;;;;;;;;5038458;28;20224;-77
2021/04/20 13:59:02;;;;;;;6.78;6.18;;;;;;;;;;5034167;28;20240;-76
2021/04/20 14:01:32;;;;;;;6.40;5.90;;;;;;;;;;5001139;28;20508;-77
2021/04/20 14:04:03;;;;;;;6.32;5.72;;;;;;;;;;5021349;28;20341;-77
2021/04/20 14:06:32;;;;;;;7.07;6.47;;;;;;;;;;5019845;28;20275;-77
2021/04/20 14:09:00;;;;;;;7.07;6.07;;;;;;;;;;4999662;28;20225;-77
2021/04/20 14:11:41;;;;;;;7.05;6.35;;;;;;;;;;5017603;28;20228;-77
2021/04/20 14:14:10;;;;;;;6.85;6.20;;;;;;;;;;5014785;28;20796;-77
2021/04/20 14:16:39;;;;;;;6.90;6.20;;;;;;;;;;5021349;28;20235;-76
2021/04/20 14:19:07;;;;;;;6.95;6.22;;;;;;;;;;5002087;28;20613;-77
2021/04/20 14:21:35;;;;;;;7.18;6.57;;;;;;;;;;5016645;28;20228;-77
2021/04/20 14:24:04;;;;;;;6.50;5.90;;;;;;;;;;5003986;28;20251;-77
2021/04/20 14:26:32;;;;;;;7.38;6.68;;;;;;;;;;5019454;28;20382;-77
2021/04/20 14:29:07;;;;;;;7.65;6.35;;;;;;;;;;5014979;28;20246;-77
2021/04/20 14:31:37;;;;;;;7.07;6.47;;;;;;;;;;5014885;28;20216;-77
2021/04/20 14:34:06;;;;;;;7.53;6.40;;;;;;;;;;5023347;28;20217;-77
2021/04/20 14:36:57;;;;;;;6.35;5.78;;;;;;;;;;5020658;28;20221;-77
2021/04/20 14:39:28;;;;;;;6.10;5.50;;;;;;;;;;5017084;28;20232;-78
2021/04/20 14:41:57;;;;;;;6.45;5.82;;;;;;;;;;5002745;28;20224;-77
2021/04/20 14:44:27;;;;;;;6.03;5.53;;;;;;;;;;5009305;28;20220;-77
2021/04/20 14:47:01;;;;;;;6.72;6.13;;;;;;;;;;5013059;28;20224;-77
2021/04/20 14:49:31;;;;;;;7.60;5.90;;;;;;;;;;5020308;28;20234;-77
2021/04/20 14:52:03;;;;;;;6.32;5.72;;;;;;;;;;5017279;28;20229;-77
2021/04/20 14:54:34;;;;;;;6.78;6.18;;;;;;;;;;5005155;28;20232;-77